Time;durP1;ratioP1;P1;durP2;ratioP2;P2;SDS_P1;SDS_P2;PMS_P1;PMS_P2;Temp;Humidity;BMP_temperature;BMP_pressure;BME280_temperature;BME280_humidity;BME280_pressure;Samples;Min_cycle;Max_cycle;Signal;HPM_P1;HPM_P2
2023/03/25 00:01:13;;;;;;;3.05;0.60;;;9.10;99.90;;;;;;4993374;28;20132;-80
2023/03/25 00:03:45;;;;;;;2.17;0.75;;;9.20;99.90;;;;;;4985078;28;20092;-81
2023/03/25 00:06:11;;;;;;;;;;;9.10;99.90;;;;;;4985428;28;20073;-80
2023/03/25 00:08:37;;;;;;;2.78;1.00;;;9.10;99.90;;;;;;4984371;28;19928;-80
2023/03/25 00:11:03;;;;;;;3.13;0.98;;;9.20;99.90;;;;;;4984743;28;20740;-80
2023/03/25 00:13:33;;;;;;;1.73;0.70;;;9.20;99.90;;;;;;4987894;28;20129;-80
2023/03/25 00:15:59;;;;;;;1.15;0.50;;;9.20;99.90;;;;;;5004336;28;20058;-80
2023/03/25 00:18:28;;;;;;;12.02;1.00;;;9.20;99.90;;;;;;5005214;28;20046;-81
2023/03/25 00:20:55;;;;;;;0.30;0.20;;;9.20;99.90;;;;;;5003024;28;20034;-80
2023/03/25 00:23:22;;;;;;;3.60;0.75;;;9.20;99.90;;;;;;4999892;28;21593;-80
2023/03/25 00:25:48;;;;;;;4.07;1.05;;;9.10;99.90;;;;;;4984151;28;20688;-80
2023/03/25 00:28:15;;;;;;;3.42;0.50;;;9.10;99.90;;;;;;4985828;28;20107;-80
2023/03/25 00:30:42;;;;;;;2.67;0.80;;;9.10;99.90;;;;;;4994405;28;20490;-81
2023/03/25 00:33:09;;;;;;;0.85;0.57;;;9.10;99.90;;;;;;4984733;28;20050;-80
2023/03/25 00:35:37;;;;;;;0.57;0.20;;;9.10;99.90;;;;;;4984755;28;21107;-80
2023/03/25 00:38:03;;;;;;;5.88;0.70;;;9.10;99.90;;;;;;4998825;28;20046;-80
2023/03/25 00:40:33;;;;;;;1.85;1.45;;;9.10;99.90;;;;;;4992390;28;20058;-81
2023/03/25 00:43:00;;;;;;;3.83;1.25;;;9.10;99.90;;;;;;5003081;28;20045;-80
2023/03/25 00:45:26;;;;;;;0.93;0.50;;;9.10;99.90;;;;;;4986698;28;20113;-78
2023/03/25 00:47:52;;;;;;;4.65;0.88;;;9.00;99.90;;;;;;5003235;28;20034;-78
2023/03/25 00:50:17;;;;;;;2.95;0.60;;;9.00;99.90;;;;;;5003722;28;20176;-79
2023/03/25 00:52:43;;;;;;;8.02;1.00;;;9.00;99.90;;;;;;5002412;28;20042;-78
2023/03/25 00:55:09;;;;;;;5.90;0.82;;;9.00;99.90;;;;;;4985191;28;20050;-78
2023/03/25 00:57:35;;;;;;;3.58;0.40;;;8.90;99.90;;;;;;5004740;28;20049;-78
2023/03/25 01:00:04;;;;;;;5.60;0.90;;;9.00;99.90;;;;;;5006726;28;20057;-78
2023/03/25 01:02:32;;;;;;;1.65;1.30;;;9.00;99.90;;;;;;5007697;28;20597;-79
2023/03/25 01:04:58;;;;;;;3.72;0.45;;;9.00;99.90;;;;;;5008485;28;20169;-78
2023/03/25 01:07:24;;;;;;;4.30;0.77;;;9.00;99.90;;;;;;4993975;28;20066;-78
2023/03/25 01:09:50;;;;;;;1.80;0.52;;;9.00;99.90;;;;;;5008110;28;20131;-78
2023/03/25 01:12:17;;;;;;;3.50;0.47;;;9.00;99.90;;;;;;5006805;28;20053;-78
2023/03/25 01:14:43;;;;;;;0.80;0.80;;;9.00;99.90;;;;;;5007993;28;20089;-78
2023/03/25 01:17:10;;;;;;;5.82;0.77;;;9.00;99.90;;;;;;5003090;28;20070;-78
2023/03/25 01:19:35;;;;;;;1.20;0.43;;;9.00;99.90;;;;;;4987217;28;20046;-78
2023/03/25 01:22:01;;;;;;;4.45;1.00;;;9.00;99.90;;;;;;4970208;28;20048;-78
2023/03/25 01:24:26;;;;;;;2.45;0.50;;;9.00;99.90;;;;;;4999265;28;20111;-78
2023/03/25 01:26:52;;;;;;;2.50;0.65;;;9.00;99.90;;;;;;4992048;28;20050;-78
2023/03/25 01:29:20;;;;;;;1.90;0.65;;;9.10;99.90;;;;;;4988047;28;20042;-78
2023/03/25 01:31:46;;;;;;;2.03;1.17;;;9.00;99.90;;;;;;4986914;28;20137;-78
2023/03/25 01:34:13;;;;;;;4.90;0.43;;;9.00;99.90;;;;;;4987858;28;20042;-78
2023/03/25 01:36:39;;;;;;;8.95;0.95;;;9.00;99.90;;;;;;4999346;28;20042;-78
2023/03/25 01:39:07;;;;;;;3.05;0.52;;;9.00;99.90;;;;;;5006177;28;20038;-78
2023/03/25 01:41:34;;;;;;;5.38;1.65;;;9.00;99.90;;;;;;5007906;28;20409;-77
2023/03/25 01:44:06;;;;;;;5.32;0.73;;;9.00;99.90;;;;;;5005947;28;20042;-78
2023/03/25 01:46:33;;;;;;;4.95;0.85;;;9.00;99.90;;;;;;4997536;28;20401;-78
2023/03/25 01:49:01;;;;;;;3.10;0.57;;;9.00;99.90;;;;;;5006518;28;20125;-78
2023/03/25 01:51:32;;;;;;;1.45;0.98;;;9.00;99.90;;;;;;4989902;28;20056;-78
2023/03/25 01:53:58;;;;;;;3.90;0.95;;;9.00;99.90;;;;;;5005902;28;20096;-78
2023/03/25 01:56:32;;;;;;;0.63;0.35;;;9.00;99.90;;;;;;5006441;28;20045;-78
2023/03/25 01:59:01;;;;;;;7.38;1.20;;;9.00;99.90;;;;;;5006140;28;20045;-78
2023/03/25 02:01:27;;;;;;;5.38;1.02;;;9.00;99.90;;;;;;5006502;28;20049;-78
2023/03/25 02:04:01;;;;;;;9.23;0.75;;;9.00;99.90;;;;;;4975991;28;20062;-78
2023/03/25 02:06:32;;;;;;;2.90;0.65;;;9.00;99.90;;;;;;4987869;28;20046;-78
2023/03/25 02:09:00;;;;;;;3.38;0.95;;;9.00;99.90;;;;;;4984811;28;20082;-78
2023/03/25 02:11:27;;;;;;;7.85;0.93;;;9.00;99.90;;;;;;4986462;28;20061;-78
2023/03/25 02:13:56;;;;;;;4.32;0.82;;;9.00;99.90;;;;;;5000251;28;20048;-79
2023/03/25 02:16:25;;;;;;;7.97;1.00;;;9.00;99.90;;;;;;5006484;28;20061;-79
2023/03/25 02:19:09;;;;;;;3.33;0.47;;;9.00;99.90;;;;;;5001597;28;20413;-79
2023/03/25 02:21:56;;;;;;;4.95;0.50;;;9.00;99.90;;;;;;4987598;28;20046;-78
2023/03/25 02:24:53;;;;;;;5.47;1.40;;;9.00;99.90;;;;;;4984215;28;20046;-78
2023/03/25 02:27:44;;;;;;;2.78;0.90;;;8.90;99.90;;;;;;4985257;28;20495;-79
2023/03/25 02:30:10;;;;;;;7.28;0.88;;;8.90;99.90;;;;;;4999520;28;20054;-79
2023/03/25 02:32:55;;;;;;;0.70;0.50;;;8.90;99.90;;;;;;5006348;28;20057;-78
2023/03/25 02:35:48;;;;;;;5.15;0.80;;;8.90;99.90;;;;;;5003738;28;20129;-79
2023/03/25 02:38:20;;;;;;;;;;;8.90;99.90;;;;;;5005015;28;20057;-78
2023/03/25 02:41:09;;;;;;;8.05;0.77;;;8.90;99.90;;;;;;5003101;28;20019;-79
2023/03/25 02:43:56;;;;;;;2.83;0.60;;;8.90;99.90;;;;;;4987177;28;20053;-79
2023/03/25 02:46:24;;;;;;;2.60;0.98;;;8.90;99.90;;;;;;4986419;28;20049;-78
2023/03/25 02:49:13;;;;;;;4.43;1.05;;;8.90;99.90;;;;;;5004838;28;20104;-78
2023/03/25 02:52:03;;;;;;;6.97;1.13;;;8.90;99.90;;;;;;5004915;28;20520;-79
2023/03/25 02:54:32;;;;;;;7.78;0.50;;;8.90;99.90;;;;;;5006640;28;20085;-79
2023/03/25 02:56:59;;;;;;;3.45;0.40;;;8.90;99.90;;;;;;5006129;28;20038;-78
2023/03/25 02:59:28;;;;;;;6.68;2.13;;;8.90;99.90;;;;;;4999491;28;20125;-79
2023/03/25 03:01:57;;;;;;;2.85;0.52;;;8.90;99.90;;;;;;4986223;28;20047;-78
2023/03/25 03:04:26;;;;;;;7.15;1.00;;;8.90;99.90;;;;;;4986313;28;20129;-78
2023/03/25 03:06:54;;;;;;;4.70;0.80;;;8.90;99.90;;;;;;4986847;28;20675;-78
2023/03/25 03:09:37;;;;;;;2.15;0.45;;;8.90;99.90;;;;;;4974998;28;20050;-78
2023/03/25 03:12:58;;;;;;;4.43;0.52;;;8.90;99.90;;;;;;5004600;28;20049;-79
2023/03/25 03:15:53;;;;;;;4.85;0.77;;;8.90;99.90;;;;;;5003680;28;20454;-79
2023/03/25 03:18:36;;;;;;;3.20;1.00;;;8.90;99.90;;;;;;5005850;28;20173;-79
2023/03/25 03:21:16;;;;;;;5.00;0.85;;;8.90;99.90;;;;;;4983115;28;20050;-78
2023/03/25 03:23:53;;;;;;;5.63;0.70;;;8.90;99.90;;;;;;5000396;28;20625;-79
2023/03/25 03:26:46;;;;;;;2.45;0.73;;;8.90;99.90;;;;;;4994226;28;20038;-78
2023/03/25 03:29:17;;;;;;;7.65;1.13;;;8.90;99.90;;;;;;5005239;28;20050;-78
2023/03/25 03:31:59;;;;;;;7.65;1.10;;;8.90;99.90;;;;;;5004468;28;20506;-79
2023/03/25 03:34:49;;;;;;;3.85;0.50;;;8.90;99.90;;;;;;5005820;28;20038;-78
2023/03/25 03:37:19;;;;;;;8.85;1.38;;;8.90;99.90;;;;;;4985686;28;20097;-78
2023/03/25 03:39:47;;;;;;;2.38;0.60;;;8.90;99.90;;;;;;4986444;28;20069;-79
2023/03/25 03:42:40;;;;;;;2.60;0.70;;;8.90;99.90;;;;;;4983507;28;20046;-78
2023/03/25 03:45:15;;;;;;;1.70;0.63;;;8.90;99.90;;;;;;4985726;28;20031;-79
2023/03/25 03:47:51;;;;;;;1.27;0.80;;;8.90;99.90;;;;;;4997382;28;20053;-78
2023/03/25 03:50:30;;;;;;;5.20;0.63;;;8.90;99.90;;;;;;5004993;28;20125;-78
2023/03/25 03:53:15;;;;;;;5.20;0.60;;;8.90;99.90;;;;;;5004851;28;20048;-77
2023/03/25 03:55:50;;;;;;;7.80;1.15;;;8.90;99.90;;;;;;5004798;28;20046;-77
2023/03/25 03:58:27;;;;;;;1.00;0.43;;;8.90;99.90;;;;;;4989359;28;20730;-78
2023/03/25 04:01:14;;;;;;;4.80;0.93;;;8.90;99.90;;;;;;4985769;28;20046;-79
2023/03/25 04:03:49;;;;;;;3.40;1.25;;;8.90;99.90;;;;;;4987915;28;20081;-78
2023/03/25 04:06:34;;;;;;;11.02;1.30;;;8.90;99.90;;;;;;5004494;28;20062;-78
2023/03/25 04:09:39;;;;;;;4.28;0.80;;;8.90;99.90;;;;;;4991774;28;20061;-79
2023/03/25 04:12:14;;;;;;;9.60;1.17;;;8.90;99.90;;;;;;5018433;28;20058;-79
2023/03/25 04:14:41;;;;;;;8.13;1.13;;;8.90;99.90;;;;;;4974689;28;20129;-79
2023/03/25 04:17:07;;;;;;;3.85;1.10;;;8.90;99.90;;;;;;4984538;28;20161;-78
2023/03/25 04:19:35;;;;;;;1.73;0.55;;;8.90;99.90;;;;;;4985286;28;20062;-77
2023/03/25 04:22:02;;;;;;;4.75;0.75;;;8.90;99.90;;;;;;4983565;28;20050;-78
2023/03/25 04:24:31;;;;;;;5.60;0.55;;;8.90;99.90;;;;;;4994648;28;20379;-78
2023/03/25 04:27:02;;;;;;;1.45;0.50;;;9.00;99.90;;;;;;4987043;28;20140;-78
2023/03/25 04:29:32;;;;;;;4.30;0.70;;;8.90;99.90;;;;;;5005080;28;20049;-77
2023/03/25 04:31:58;;;;;;;3.72;0.65;;;8.90;99.90;;;;;;5002554;28;20034;-78
2023/03/25 04:34:25;;;;;;;0.95;0.50;;;8.90;99.90;;;;;;4967321;28;20133;-77
2023/03/25 04:36:52;;;;;;;6.20;0.40;;;8.90;99.90;;;;;;4984106;28;20073;-78
2023/03/25 04:39:21;;;;;;;4.63;0.73;;;8.90;99.90;;;;;;4983549;28;20442;-78
2023/03/25 04:41:55;;;;;;;3.05;0.52;;;8.90;99.90;;;;;;4983586;28;20407;-79
2023/03/25 04:44:22;;;;;;;6.13;0.95;;;8.90;99.90;;;;;;4986235;28;20042;-78
2023/03/25 04:46:48;;;;;;;3.33;0.90;;;8.90;99.90;;;;;;5004793;28;20046;-78
2023/03/25 04:49:19;;;;;;;7.53;0.68;;;8.90;99.90;;;;;;5003942;28;20041;-78
2023/03/25 04:51:50;;;;;;;3.58;0.75;;;8.80;99.90;;;;;;5003444;28;20072;-78
2023/03/25 04:54:19;;;;;;;1.80;0.60;;;8.80;99.90;;;;;;5002827;28;20376;-79
2023/03/25 04:56:49;;;;;;;3.80;0.98;;;8.80;99.90;;;;;;5002758;28;20665;-78
2023/03/25 04:59:20;;;;;;;1.63;0.47;;;8.80;99.90;;;;;;5003656;28;20495;-78
2023/03/25 05:01:46;;;;;;;4.97;1.15;;;8.70;99.90;;;;;;5004369;28;20057;-78
2023/03/25 05:04:16;;;;;;;6.15;0.73;;;8.80;99.90;;;;;;5003370;28;20049;-78
2023/03/25 05:06:44;;;;;;;2.30;0.50;;;8.70;99.90;;;;;;5003562;28;20057;-79
2023/03/25 05:09:14;;;;;;;4.32;1.00;;;8.70;99.90;;;;;;5002499;28;20089;-78
2023/03/25 05:11:41;;;;;;;4.60;1.13;;;8.70;99.90;;;;;;5004090;28;20038;-78
2023/03/25 05:14:12;;;;;;;3.22;0.80;;;8.70;99.90;;;;;;4985505;28;20046;-79
2023/03/25 05:16:38;;;;;;;7.10;0.98;;;8.70;99.90;;;;;;4966751;28;20490;-79
2023/03/25 05:19:05;;;;;;;5.05;0.70;;;8.70;99.90;;;;;;4984254;28;20053;-79
2023/03/25 05:21:31;;;;;;;5.18;0.55;;;8.70;99.90;;;;;;4984321;28;20109;-78
2023/03/25 05:24:00;;;;;;;2.45;0.88;;;8.60;99.90;;;;;;4983878;28;20049;-78
2023/03/25 05:26:33;;;;;;;4.38;1.23;;;8.70;99.90;;;;;;5004151;28;20046;-78
2023/03/25 05:29:05;;;;;;;5.47;0.82;;;8.70;99.90;;;;;;5003175;28;20406;-78
2023/03/25 05:31:31;;;;;;;1.83;0.52;;;8.70;99.90;;;;;;5003905;28;20041;-79
2023/03/25 05:33:56;;;;;;;4.90;0.63;;;8.70;99.90;;;;;;4969808;28;20074;-78
2023/03/25 05:36:25;;;;;;;5.82;0.95;;;8.70;99.90;;;;;;4982958;28;20406;-79
2023/03/25 05:38:55;;;;;;;3.35;0.55;;;8.70;99.90;;;;;;4981972;28;20207;-78
2023/03/25 05:41:31;;;;;;;0.40;0.30;;;8.70;99.90;;;;;;4984203;28;20050;-79
2023/03/25 05:43:57;;;;;;;7.00;1.00;;;8.70;99.90;;;;;;5002793;28;20129;-78
2023/03/25 05:46:23;;;;;;;6.85;0.80;;;8.70;99.90;;;;;;5007089;28;20124;-78
2023/03/25 05:48:48;;;;;;;2.80;1.35;;;8.70;99.90;;;;;;5006374;28;20449;-78
2023/03/25 05:51:17;;;;;;;4.15;0.70;;;8.70;99.90;;;;;;5005945;28;20088;-78
2023/03/25 05:53:44;;;;;;;9.85;1.50;;;8.70;99.90;;;;;;5005749;28;20042;-78
2023/03/25 05:56:10;;;;;;;12.00;1.48;;;8.70;99.90;;;;;;5005642;28;20065;-79
2023/03/25 05:58:37;;;;;;;5.13;0.40;;;8.70;99.90;;;;;;5007198;28;20053;-80
2023/03/25 06:01:03;;;;;;;2.58;0.80;;;8.80;99.90;;;;;;5006688;28;20116;-79
2023/03/25 06:03:29;;;;;;;1.00;0.40;;;8.80;99.90;;;;;;4995097;28;20057;-79
2023/03/25 06:05:55;;;;;;;1.55;0.40;;;8.80;99.90;;;;;;4986934;28;20050;-78
2023/03/25 06:08:25;;;;;;;2.50;0.57;;;8.80;99.90;;;;;;4986105;28;20121;-78
2023/03/25 06:10:59;;;;;;;1.48;0.40;;;8.80;99.90;;;;;;4986522;28;20050;-79
2023/03/25 06:13:26;;;;;;;3.72;0.77;;;8.80;99.90;;;;;;4992320;28;20100;-78
2023/03/25 06:15:55;;;;;;;4.20;0.60;;;8.80;99.90;;;;;;4985856;28;20089;-78
2023/03/25 06:18:23;;;;;;;4.32;0.90;;;8.80;99.90;;;;;;5005889;28;20054;-77
2023/03/25 06:20:52;;;;;;;4.00;0.88;;;8.80;99.90;;;;;;5005163;28;20042;-79
2023/03/25 06:23:21;;;;;;;1.13;0.47;;;8.80;99.90;;;;;;5005492;28;20050;-78
2023/03/25 06:25:47;;;;;;;8.68;0.60;;;8.80;99.90;;;;;;5006084;28;20037;-79
2023/03/25 06:28:17;;;;;;;2.33;0.45;;;8.80;99.90;;;;;;4999638;28;20506;-78
2023/03/25 06:30:43;;;;;;;0.40;0.30;;;8.80;99.90;;;;;;4987271;28;20042;-79
2023/03/25 06:33:09;;;;;;;4.30;0.70;;;8.80;99.90;;;;;;4985229;28;20050;-78
2023/03/25 06:35:35;;;;;;;6.15;0.77;;;8.80;99.90;;;;;;5005982;28;20142;-79
2023/03/25 06:38:01;;;;;;;2.95;0.50;;;8.90;99.90;;;;;;5004255;28;20045;-78
2023/03/25 06:40:27;;;;;;;1.55;0.50;;;8.80;99.90;;;;;;5005741;28;20046;-78
2023/03/25 06:42:52;;;;;;;3.95;0.60;;;8.90;99.90;;;;;;5005004;28;20045;-78
2023/03/25 06:45:18;;;;;;;2.47;0.50;;;8.80;99.90;;;;;;4988704;28;20045;-78
2023/03/25 06:47:44;;;;;;;6.78;1.30;;;8.90;99.90;;;;;;4999602;28;20042;-78
2023/03/25 06:50:10;;;;;;;3.53;0.68;;;8.80;99.90;;;;;;5005850;28;20048;-78
2023/03/25 06:52:35;;;;;;;3.47;0.40;;;8.80;99.90;;;;;;5004995;28;20034;-78
2023/03/25 06:55:01;;;;;;;9.65;1.63;;;8.80;99.90;;;;;;4999362;28;20038;-77
2023/03/25 06:57:27;;;;;;;1.25;0.60;;;8.80;99.90;;;;;;5002936;28;20100;-78
2023/03/25 06:59:53;;;;;;;2.97;1.40;;;8.80;99.90;;;;;;5001682;28;20192;-80
2023/03/25 07:02:18;;;;;;;6.85;0.95;;;8.80;99.90;;;;;;4992983;28;20506;-79
2023/03/25 07:04:44;;;;;;;1.65;0.60;;;8.80;99.90;;;;;;4986269;28;20635;-79
2023/03/25 07:07:09;;;;;;;6.45;0.40;;;8.80;99.90;;;;;;4989804;28;20100;-82
2023/03/25 07:09:35;;;;;;;3.88;0.77;;;8.80;99.90;;;;;;5003625;28;20445;-80
2023/03/25 07:12:01;;;;;;;2.53;0.50;;;8.90;99.90;;;;;;5001436;28;20562;-80
2023/03/25 07:14:27;;;;;;;5.75;0.93;;;8.90;99.90;;;;;;4985380;28;20042;-80
2023/03/25 07:16:53;;;;;;;3.28;0.52;;;8.90;99.90;;;;;;4994587;28;20506;-80
2023/03/25 07:19:18;;;;;;;0.52;0.45;;;8.90;99.90;;;;;;4994683;28;20044;-80
2023/03/25 07:21:44;;;;;;;3.08;0.60;;;8.90;99.90;;;;;;4984976;28;20121;-79
2023/03/25 07:24:10;;;;;;;2.05;0.40;;;8.80;99.90;;;;;;4993655;28;20056;-79
2023/03/25 07:26:35;;;;;;;6.55;1.30;;;8.70;99.90;;;;;;4995963;28;20047;-81
2023/03/25 07:29:02;;;;;;;1.27;0.60;;;8.70;99.90;;;;;;4985711;28;20482;-80
2023/03/25 07:31:28;;;;;;;0.55;0.30;;;8.70;99.90;;;;;;5004380;28;20099;-81
2023/03/25 07:33:54;;;;;;;2.72;0.47;;;8.70;99.90;;;;;;4987475;28;20038;-80
2023/03/25 07:36:20;;;;;;;3.15;1.70;;;8.60;99.90;;;;;;5003145;28;20469;-79
2023/03/25 07:38:46;;;;;;;5.20;0.77;;;8.60;99.90;;;;;;4995766;28;20038;-80
2023/03/25 07:41:12;;;;;;;0.65;0.60;;;8.60;99.90;;;;;;5002563;28;20248;-79
2023/03/25 07:43:38;;;;;;;1.10;0.50;;;8.60;99.90;;;;;;4999087;28;21375;-78
2023/03/25 07:46:05;;;;;;;1.35;0.70;;;8.60;99.90;;;;;;4984351;28;20160;-79
2023/03/25 07:48:30;;;;;;;8.48;0.70;;;8.60;99.90;;;;;;5004752;28;20595;-80
2023/03/25 07:50:56;;;;;;;2.08;0.60;;;8.50;99.90;;;;;;5001896;28;20129;-81
2023/03/25 07:53:22;;;;;;;3.13;0.68;;;8.50;99.90;;;;;;4997673;28;20517;-79
2023/03/25 07:55:50;;;;;;;1.95;0.55;;;8.50;99.90;;;;;;4996916;28;20042;-79
2023/03/25 07:58:17;;;;;;;3.00;0.90;;;8.50;99.90;;;;;;5000203;28;20509;-79
2023/03/25 08:00:44;;;;;;;10.95;1.77;;;8.60;99.90;;;;;;4989478;28;20043;-80
2023/03/25 08:03:11;;;;;;;1.50;0.43;;;8.60;99.90;;;;;;5002172;28;20080;-79
2023/03/25 08:05:37;;;;;;;4.28;0.93;;;8.60;99.90;;;;;;5004831;28;20266;-87
2023/03/25 08:08:05;;;;;;;2.08;0.50;;;8.70;99.90;;;;;;5002687;28;20038;-87
2023/03/25 08:10:31;;;;;;;4.30;0.73;;;8.70;99.90;;;;;;5003288;28;20033;-85
2023/03/25 08:12:56;;;;;;;0.75;0.38;;;8.80;99.90;;;;;;5003907;28;20049;-88
2023/03/25 08:15:25;;;;;;;4.30;1.05;;;8.80;99.90;;;;;;4991534;28;20498;-82
2023/03/25 08:17:51;;;;;;;3.10;0.57;;;8.80;99.90;;;;;;5000028;28;20092;-85
2023/03/25 08:20:17;;;;;;;2.25;1.10;;;8.90;99.90;;;;;;4999432;28;20034;-79
2023/03/25 08:22:46;;;;;;;2.55;0.50;;;8.90;99.90;;;;;;5003093;28;20057;-86
2023/03/25 08:25:12;;;;;;;1.42;0.55;;;8.90;99.90;;;;;;5002170;28;20034;-81
2023/03/25 08:27:37;;;;;;;4.07;0.35;;;8.90;99.90;;;;;;5000349;28;20057;-86
2023/03/25 08:30:04;;;;;;;3.00;0.63;;;9.00;99.90;;;;;;5002414;28;20046;-84
2023/03/25 08:32:29;;;;;;;3.15;0.55;;;9.00;99.90;;;;;;5004293;28;20050;-79
2023/03/25 08:34:56;;;;;;;0.47;0.30;;;9.10;99.90;;;;;;5004785;28;20042;-84
2023/03/25 08:37:22;;;;;;;4.03;0.80;;;9.10;99.90;;;;;;4994354;28;20545;-80
2023/03/25 08:39:49;;;;;;;2.95;0.45;;;9.20;99.90;;;;;;4993897;28;20042;-84
2023/03/25 08:42:16;;;;;;;5.18;1.05;;;9.20;99.90;;;;;;4983155;28;20134;-84
2023/03/25 08:44:41;;;;;;;2.10;0.35;;;9.30;99.90;;;;;;5007188;28;20039;-83
2023/03/25 08:47:08;;;;;;;4.47;0.60;;;9.30;99.90;;;;;;5004058;28;20046;-87
2023/03/25 08:49:34;;;;;;;2.92;0.60;;;9.30;99.90;;;;;;5019295;28;20040;-83
2023/03/25 08:52:00;;;;;;;1.65;0.47;;;9.40;99.90;;;;;;5003201;28;20041;-79
2023/03/25 08:54:27;;;;;;;1.95;0.50;;;9.40;99.90;;;;;;5003373;28;20046;-78
2023/03/25 08:56:52;;;;;;;2.45;0.50;;;9.40;99.90;;;;;;5004379;28;20046;-85
2023/03/25 08:59:18;;;;;;;2.83;0.32;;;9.50;99.90;;;;;;5002643;28;20046;-77
2023/03/25 09:01:44;;;;;;;1.83;0.45;;;9.50;99.90;;;;;;4999931;28;20038;-82
2023/03/25 09:04:10;;;;;;;6.28;1.10;;;9.60;99.90;;;;;;4993245;28;20065;-83
2023/03/25 09:06:38;;;;;;;4.32;0.65;;;9.60;99.90;;;;;;4991305;28;20386;-82
2023/03/25 09:09:09;;;;;;;3.85;0.52;;;9.60;99.90;;;;;;4991194;28;20052;-83
2023/03/25 09:11:35;;;;;;;2.17;0.40;;;9.60;99.90;;;;;;4994726;28;20050;-83
2023/03/25 09:14:03;;;;;;;0.95;0.73;;;9.60;99.90;;;;;;5003624;28;20875;-83
2023/03/25 09:16:33;;;;;;;5.20;0.60;;;9.60;99.90;;;;;;5001715;28;20050;-82
2023/03/25 09:18:59;;;;;;;3.22;0.40;;;9.60;99.90;;;;;;5006318;28;20478;-80
2023/03/25 09:21:25;;;;;;;1.17;1.17;;;9.50;99.90;;;;;;5001723;28;20049;-82
2023/03/25 09:23:51;;;;;;;1.58;0.60;;;9.60;99.90;;;;;;5001582;28;20498;-81
2023/03/25 09:26:17;;;;;;;8.65;1.15;;;9.60;99.90;;;;;;5003915;28;20045;-80
2023/03/25 09:28:43;;;;;;;2.97;0.40;;;9.60;99.90;;;;;;5007549;28;20038;-87
2023/03/25 09:31:08;;;;;;;2.63;0.55;;;9.60;99.90;;;;;;5004198;28;20038;-80
2023/03/25 09:33:35;;;;;;;7.88;0.55;;;9.70;99.90;;;;;;4986439;28;20073;-81
2023/03/25 09:36:02;;;;;;;2.50;1.00;;;9.60;99.90;;;;;;5005677;28;20041;-80
2023/03/25 09:38:28;;;;;;;0.30;0.30;;;9.70;99.90;;;;;;5007694;28;20128;-79
2023/03/25 09:40:54;;;;;;;2.42;0.80;;;9.70;99.90;;;;;;5022242;28;20038;-82
2023/03/25 09:43:37;;;;;;;1.58;0.32;;;9.70;99.90;;;;;;5003784;28;20811;-80
2023/03/25 09:46:05;;;;;;;5.22;0.50;;;9.80;99.90;;;;;;4999407;28;20050;-79
2023/03/25 09:48:38;;;;;;;3.17;0.32;;;9.80;99.90;;;;;;4997834;28;20088;-79
2023/03/25 09:51:10;;;;;;;7.57;0.68;;;9.80;99.90;;;;;;4985546;28;20486;-79
2023/03/25 09:53:44;;;;;;;2.17;0.90;;;9.80;99.90;;;;;;4970711;28;20093;-79
2023/03/25 09:56:21;;;;;;;2.50;0.57;;;9.90;99.90;;;;;;5022488;28;20488;-80
2023/03/25 09:59:18;;;;;;;2.65;0.40;;;9.90;99.90;;;;;;5007609;28;20046;-80
2023/03/25 10:02:01;;;;;;;5.47;0.50;;;9.90;99.90;;;;;;4977902;28;20105;-80
2023/03/25 10:04:41;;;;;;;5.68;0.68;;;10.00;99.90;;;;;;5003146;28;20038;-79
2023/03/25 10:07:13;;;;;;;0.47;0.30;;;10.00;99.90;;;;;;4995213;28;20041;-81
2023/03/25 10:10:07;;;;;;;3.25;0.73;;;10.10;99.90;;;;;;5007717;28;20042;-80
2023/03/25 10:12:41;;;;;;;2.72;0.80;;;10.10;99.90;;;;;;5005380;28;20053;-81
2023/03/25 10:15:34;;;;;;;3.60;0.40;;;10.10;99.90;;;;;;5007085;28;20057;-81
2023/03/25 10:18:26;;;;;;;7.55;0.88;;;10.20;99.90;;;;;;5005494;28;20453;-80
2023/03/25 10:21:00;;;;;;;2.60;0.88;;;10.20;99.90;;;;;;4988621;28;20125;-80
2023/03/25 10:23:42;;;;;;;3.40;0.40;;;10.30;99.90;;;;;;5006413;28;20053;-79
2023/03/25 10:26:13;;;;;;;2.35;0.40;;;10.30;99.90;;;;;;5005158;28;20124;-81
2023/03/25 10:28:47;;;;;;;0.77;0.50;;;10.40;99.90;;;;;;4994987;28;20100;-80
2023/03/25 10:31:17;;;;;;;1.73;0.45;;;10.40;99.90;;;;;;5002988;28;20038;-78
2023/03/25 10:33:51;;;;;;;0.85;0.50;;;10.50;99.90;;;;;;5004907;28;20069;-78
2023/03/25 10:36:20;;;;;;;4.97;0.52;;;10.50;99.90;;;;;;5005260;28;20491;-79
2023/03/25 10:38:49;;;;;;;1.70;0.88;;;10.50;99.90;;;;;;5006613;28;20414;-78
2023/03/25 10:41:29;;;;;;;3.15;0.43;;;10.50;99.90;;;;;;5006221;28;20092;-81
2023/03/25 10:43:55;;;;;;;5.10;0.95;;;10.60;99.90;;;;;;5007124;28;20042;-79
2023/03/25 10:46:56;;;;;;;2.22;0.50;;;10.60;99.90;;;;;;5005694;28;20100;-78
2023/03/25 10:49:25;;;;;;;2.38;0.68;;;10.60;99.90;;;;;;4979677;28;20053;-78
2023/03/25 10:51:53;;;;;;;7.78;0.88;;;10.60;99.90;;;;;;4988734;28;20128;-82
2023/03/25 10:54:22;;;;;;;4.97;0.93;;;10.50;99.90;;;;;;4991111;28;20057;-80
2023/03/25 10:56:51;;;;;;;0.93;0.40;;;10.60;99.90;;;;;;5002856;28;20116;-83
2023/03/25 10:59:44;;;;;;;0.80;0.52;;;10.60;99.90;;;;;;5004470;28;20046;-83
2023/03/25 11:02:19;;;;;;;3.97;0.50;;;10.70;99.90;;;;;;4996315;28;20058;-82
2023/03/25 11:04:47;;;;;;;1.52;0.82;;;10.70;99.90;;;;;;5010734;28;20540;-82
2023/03/25 11:07:35;;;;;;;1.77;1.10;;;10.80;99.90;;;;;;4988146;28;20491;-80
2023/03/25 11:10:14;;;;;;;2.47;0.50;;;10.90;99.90;;;;;;5007920;28;20797;-83
2023/03/25 11:12:44;;;;;;;2.85;0.40;;;10.80;99.90;;;;;;5002044;28;20093;-79
2023/03/25 11:15:25;;;;;;;1.42;0.40;;;10.90;99.90;;;;;;5003761;28;20049;-78
2023/03/25 11:18:14;;;;;;;2.50;0.60;;;10.90;99.90;;;;;;5003928;28;20107;-78
2023/03/25 11:20:47;;;;;;;1.40;0.77;;;10.90;99.90;;;;;;4991517;28;20093;-78
2023/03/25 11:23:25;;;;;;;3.97;0.45;;;10.90;99.90;;;;;;5001599;28;20109;-78
2023/03/25 11:25:53;;;;;;;4.80;0.77;;;10.90;99.90;;;;;;5002657;28;20041;-77
2023/03/25 11:28:30;;;;;;;2.60;0.65;;;10.90;99.90;;;;;;5005174;28;20046;-77
2023/03/25 11:31:19;;;;;;;0.47;0.40;;;11.00;99.90;;;;;;5004633;28;20100;-79
2023/03/25 11:34:13;;;;;;;3.55;1.15;;;11.00;99.90;;;;;;5005729;28;20104;-79
2023/03/25 11:36:51;;;;;;;0.60;0.40;;;11.00;99.90;;;;;;5003191;28;20049;-79
2023/03/25 11:39:25;;;;;;;2.15;0.88;;;11.00;99.90;;;;;;4987931;28;20121;-78
2023/03/25 11:41:51;;;;;;;5.60;0.65;;;11.10;99.90;;;;;;4994955;28;20046;-79
2023/03/25 11:44:50;;;;;;;2.50;0.38;;;11.10;99.90;;;;;;5019067;28;20053;-81
2023/03/25 11:47:21;;;;;;;2.03;0.68;;;11.10;99.90;;;;;;4996872;28;20057;-81
2023/03/25 11:49:48;;;;;;;4.20;0.60;;;11.10;99.90;;;;;;4995355;28;20394;-80
2023/03/25 11:52:19;;;;;;;1.55;0.40;;;11.20;99.90;;;;;;4984012;28;20057;-79
2023/03/25 11:54:45;;;;;;;3.95;0.85;;;11.10;99.90;;;;;;4999806;28;20037;-77
2023/03/25 11:57:18;;;;;;;4.47;0.50;;;11.10;99.90;;;;;;5003059;28;20417;-77
2023/03/25 11:59:49;;;;;;;0.50;0.50;;;11.10;99.90;;;;;;5001805;28;20054;-76
2023/03/25 12:02:14;;;;;;;3.03;0.47;;;11.10;99.90;;;;;;5001875;28;20517;-77
2023/03/25 12:05:00;;;;;;;2.45;0.40;;;11.20;99.90;;;;;;5002051;28;20053;-77
2023/03/25 12:07:26;;;;;;;2.72;0.65;;;11.20;99.90;;;;;;5002915;28;20045;-76
2023/03/25 12:09:57;;;;;;;1.60;0.60;;;11.20;99.90;;;;;;5017889;28;20042;-76
2023/03/25 12:12:57;;;;;;;0.90;0.47;;;11.20;99.90;;;;;;4985880;28;20053;-76
2023/03/25 12:15:46;;;;;;;3.22;0.60;;;11.10;99.90;;;;;;5002241;28;20042;-76
2023/03/25 12:18:39;;;;;;;3.35;0.57;;;11.10;99.90;;;;;;5002186;28;20108;-77
2023/03/25 12:21:16;;;;;;;0.93;0.52;;;11.00;99.90;;;;;;5001794;28;20449;-76
2023/03/25 12:24:11;;;;;;;4.13;0.60;;;11.00;99.90;;;;;;5003827;28;20042;-78
2023/03/25 12:27:14;;;;;;;2.60;0.85;;;11.00;99.90;;;;;;5002162;28;20502;-78
2023/03/25 12:30:05;;;;;;;2.47;0.65;;;11.00;99.90;;;;;;4999371;28;20058;-79
2023/03/25 12:32:50;;;;;;;2.20;0.40;;;10.90;99.90;;;;;;4990474;28;20054;-79
2023/03/25 12:35:39;;;;;;;4.05;0.85;;;10.80;99.90;;;;;;5002983;28;20041;-79
2023/03/25 12:38:21;;;;;;;2.10;0.93;;;10.80;99.90;;;;;;4985210;28;20049;-78
2023/03/25 12:41:08;;;;;;;1.17;0.30;;;10.70;99.90;;;;;;5003274;28;20048;-77
2023/03/25 12:43:56;;;;;;;3.00;1.45;;;10.70;99.90;;;;;;5001713;28;20045;-80
2023/03/25 12:46:47;;;;;;;1.88;0.50;;;10.60;99.90;;;;;;5003117;28;20497;-79
2023/03/25 12:49:57;;;;;;;3.03;0.73;;;10.50;99.90;;;;;;4989882;28;20042;-78
2023/03/25 12:52:58;;;;;;;0.40;0.40;;;10.40;99.90;;;;;;4971790;28;20054;-78
2023/03/25 12:55:42;;;;;;;5.97;0.60;;;10.40;99.90;;;;;;4976746;28;20050;-78
2023/03/25 12:58:23;;;;;;;5.00;0.95;;;10.30;99.90;;;;;;4981685;28;20579;-78
2023/03/25 13:00:55;;;;;;;3.13;0.25;;;10.30;99.90;;;;;;4982353;28;20050;-79
2023/03/25 13:04:06;;;;;;;3.40;0.50;;;10.30;99.90;;;;;;4982607;28;20062;-78
2023/03/25 13:06:52;;;;;;;2.08;0.73;;;10.30;99.90;;;;;;4940822;29;20051;-79
2023/03/25 13:09:24;;;;;;;1.80;0.45;;;10.20;99.90;;;;;;4925323;29;20055;-78
2023/03/25 13:11:58;;;;;;;1.85;0.50;;;10.20;99.90;;;;;;4968932;28;20058;-78
2023/03/25 13:14:33;;;;;;;1.05;0.40;;;10.20;99.90;;;;;;4983006;28;20239;-77
2023/03/25 13:17:04;;;;;;;2.90;0.60;;;10.30;99.90;;;;;;4983500;28;20507;-78
2023/03/25 13:19:35;;;;;;;0.68;0.47;;;10.40;99.90;;;;;;4982854;28;20046;-78
2023/03/25 13:22:24;;;;;;;2.95;0.40;;;10.50;99.90;;;;;;4982121;28;20289;-79